sensor_id;sensor_type;location;lat;lon;timestamp;temperature;humidity
31207;DHT22;17834;52.992;8.856;2023-05-29T00:02:03;9.50;99.90
31207;DHT22;17834;52.992;8.856;2023-05-29T00:04:29;9.50;99.90
31207;DHT22;17834;52.992;8.856;2023-05-29T00:06:54;9.50;99.90
31207;DHT22;17834;52.992;8.856;2023-05-29T00:09:20;9.50;99.90
31207;DHT22;17834;52.992;8.856;2023-05-29T00:11:46;9.50;99.90
31207;DHT22;17834;52.992;8.856;2023-05-29T00:14:16;9.50;99.90
31207;DHT22;17834;52.992;8.856;2023-05-29T00:16:44;9.50;99.90
31207;DHT22;17834;52.992;8.856;2023-05-29T00:19:10;9.50;99.90
31207;DHT22;17834;52.992;8.856;2023-05-29T00:21:36;9.50;99.90
31207;DHT22;17834;52.992;8.856;2023-05-29T00:24:01;9.50;99.90
31207;DHT22;17834;52.992;8.856;2023-05-29T00:26:26;9.50;99.90
31207;DHT22;17834;52.992;8.856;2023-05-29T00:28:52;9.50;99.90
31207;DHT22;17834;52.992;8.856;2023-05-29T00:31:17;9.60;99.90
31207;DHT22;17834;52.992;8.856;2023-05-29T00:33:43;9.60;99.90
31207;DHT22;17834;52.992;8.856;2023-05-29T00:36:09;9.70;99.90
31207;DHT22;17834;52.992;8.856;2023-05-29T00:38:35;9.70;99.90
31207;DHT22;17834;52.992;8.856;2023-05-29T00:41:01;9.70;99.90
31207;DHT22;17834;52.992;8.856;2023-05-29T00:43:27;9.80;99.90
31207;DHT22;17834;52.992;8.856;2023-05-29T00:45:53;9.80;99.90
31207;DHT22;17834;52.992;8.856;2023-05-29T00:48:19;9.80;99.90
31207;DHT22;17834;52.992;8.856;2023-05-29T00:50:45;9.70;99.90
31207;DHT22;17834;52.992;8.856;2023-05-29T00:53:10;9.70;99.90
31207;DHT22;17834;52.992;8.856;2023-05-29T00:55:36;9.70;99.90
31207;DHT22;17834;52.992;8.856;2023-05-29T00:58:02;9.70;99.90
31207;DHT22;17834;52.992;8.856;2023-05-29T01:00:28;9.60;99.90
31207;DHT22;17834;52.992;8.856;2023-05-29T01:02:56;9.60;99.90
31207;DHT22;17834;52.992;8.856;2023-05-29T01:05:23;9.60;99.90
31207;DHT22;17834;52.992;8.856;2023-05-29T01:07:49;9.60;99.90
31207;DHT22;17834;52.992;8.856;2023-05-29T01:10:15;9.60;99.90
31207;DHT22;17834;52.992;8.856;2023-05-29T01:12:56;9.60;99.90
31207;DHT22;17834;52.992;8.856;2023-05-29T01:15:37;9.60;99.90
31207;DHT22;17834;52.992;8.856;2023-05-29T01:18:26;9.60;99.90
31207;DHT22;17834;52.992;8.856;2023-05-29T01:26:45;9.50;99.90
31207;DHT22;17834;52.992;8.856;2023-05-29T01:29:13;9.50;99.90
31207;DHT22;17834;52.992;8.856;2023-05-29T01:31:39;9.50;99.90
31207;DHT22;17834;52.992;8.856;2023-05-29T01:34:07;9.40;99.90
31207;DHT22;17834;52.992;8.856;2023-05-29T01:36:32;9.40;99.90
31207;DHT22;17834;52.992;8.856;2023-05-29T01:38:59;9.40;99.90
31207;DHT22;17834;52.992;8.856;2023-05-29T01:41:25;9.30;99.90
31207;DHT22;17834;52.992;8.856;2023-05-29T01:43:52;9.30;99.90
31207;DHT22;17834;52.992;8.856;2023-05-29T01:46:18;9.30;99.90
31207;DHT22;17834;52.992;8.856;2023-05-29T01:48:45;9.20;99.90
31207;DHT22;17834;52.992;8.856;2023-05-29T01:51:12;9.10;99.90
31207;DHT22;17834;52.992;8.856;2023-05-29T01:53:38;9.10;99.90
31207;DHT22;17834;52.992;8.856;2023-05-29T01:56:05;9.10;99.90
31207;DHT22;17834;52.992;8.856;2023-05-29T01:58:31;9.00;99.90
31207;DHT22;17834;52.992;8.856;2023-05-29T02:00:58;8.90;99.90
31207;DHT22;17834;52.992;8.856;2023-05-29T02:03:23;8.90;99.90
31207;DHT22;17834;52.992;8.856;2023-05-29T02:05:49;8.90;99.90
31207;DHT22;17834;52.992;8.856;2023-05-29T02:08:15;8.80;99.90
31207;DHT22;17834;52.992;8.856;2023-05-29T02:10:41;8.80;99.90
31207;DHT22;17834;52.992;8.856;2023-05-29T02:13:06;8.80;99.90
31207;DHT22;17834;52.992;8.856;2023-05-29T02:15:32;8.80;99.90
31207;DHT22;17834;52.992;8.856;2023-05-29T02:17:57;8.90;99.90
31207;DHT22;17834;52.992;8.856;2023-05-29T02:20:24;8.90;99.90
31207;DHT22;17834;52.992;8.856;2023-05-29T02:22:49;9.00;99.90
31207;DHT22;17834;52.992;8.856;2023-05-29T02:25:15;9.00;99.90
31207;DHT22;17834;52.992;8.856;2023-05-29T02:27:40;9.00;99.90
31207;DHT22;17834;52.992;8.856;2023-05-29T02:30:06;9.10;99.90
31207;DHT22;17834;52.992;8.856;2023-05-29T02:32:33;9.10;99.90
31207;DHT22;17834;52.992;8.856;2023-05-29T02:34:58;9.20;99.90
31207;DHT22;17834;52.992;8.856;2023-05-29T02:37:24;9.10;99.90
31207;DHT22;17834;52.992;8.856;2023-05-29T02:39:51;9.20;99.90
31207;DHT22;17834;52.992;8.856;2023-05-29T02:42:17;9.20;99.90
31207;DHT22;17834;52.992;8.856;2023-05-29T02:44:43;9.30;99.90
31207;DHT22;17834;52.992;8.856;2023-05-29T02:47:08;9.30;99.90
31207;DHT22;17834;52.992;8.856;2023-05-29T02:49:34;9.30;99.90
31207;DHT22;17834;52.992;8.856;2023-05-29T02:51:59;9.30;99.90
31207;DHT22;17834;52.992;8.856;2023-05-29T02:54:25;9.30;99.90
31207;DHT22;17834;52.992;8.856;2023-05-29T02:56:51;9.30;99.90
31207;DHT22;17834;52.992;8.856;2023-05-29T02:59:17;9.30;99.90
31207;DHT22;17834;52.992;8.856;2023-05-29T03:01:42;9.40;99.90
31207;DHT22;17834;52.992;8.856;2023-05-29T03:04:09;9.40;99.90
31207;DHT22;17834;52.992;8.856;2023-05-29T03:06:35;9.40;99.90
31207;DHT22;17834;52.992;8.856;2023-05-29T03:09:05;9.40;99.90
31207;DHT22;17834;52.992;8.856;2023-05-29T03:11:31;9.40;99.90
31207;DHT22;17834;52.992;8.856;2023-05-29T03:13:57;9.40;99.90
31207;DHT22;17834;52.992;8.856;2023-05-29T03:16:22;9.40;99.90
31207;DHT22;17834;52.992;8.856;2023-05-29T03:18:48;9.40;99.90
31207;DHT22;17834;52.992;8.856;2023-05-29T03:21:13;9.40;99.90
31207;DHT22;17834;52.992;8.856;2023-05-29T03:23:39;9.30;99.90
31207;DHT22;17834;52.992;8.856;2023-05-29T03:26:05;9.30;99.90
31207;DHT22;17834;52.992;8.856;2023-05-29T03:28:31;9.30;99.90
31207;DHT22;17834;52.992;8.856;2023-05-29T03:30:56;9.30;99.90
31207;DHT22;17834;52.992;8.856;2023-05-29T03:33:22;9.30;99.90
31207;DHT22;17834;52.992;8.856;2023-05-29T03:35:47;9.30;99.90
31207;DHT22;17834;52.992;8.856;2023-05-29T03:38:13;9.40;99.90
31207;DHT22;17834;52.992;8.856;2023-05-29T03:40:38;9.30;99.90
31207;DHT22;17834;52.992;8.856;2023-05-29T03:43:04;9.40;99.90
31207;DHT22;17834;52.992;8.856;2023-05-29T03:45:30;9.40;99.90
31207;DHT22;17834;52.992;8.856;2023-05-29T03:47:55;9.40;99.90
31207;DHT22;17834;52.992;8.856;2023-05-29T03:50:21;9.40;99.90
31207;DHT22;17834;52.992;8.856;2023-05-29T03:52:46;9.40;99.90
31207;DHT22;17834;52.992;8.856;2023-05-29T03:55:12;9.40;99.90
31207;DHT22;17834;52.992;8.856;2023-05-29T03:57:39;9.40;99.90
31207;DHT22;17834;52.992;8.856;2023-05-29T04:00:10;9.50;99.90
31207;DHT22;17834;52.992;8.856;2023-05-29T04:02:37;9.50;99.90
31207;DHT22;17834;52.992;8.856;2023-05-29T04:05:05;9.50;99.90
31207;DHT22;17834;52.992;8.856;2023-05-29T04:07:32;9.50;99.90
31207;DHT22;17834;52.992;8.856;2023-05-29T04:09:57;9.60;99.90
31207;DHT22;17834;52.992;8.856;2023-05-29T04:12:23;9.60;99.90
31207;DHT22;17834;52.992;8.856;2023-05-29T04:14:48;9.70;99.90
31207;DHT22;17834;52.992;8.856;2023-05-29T04:17:14;9.70;99.90
31207;DHT22;17834;52.992;8.856;2023-05-29T04:19:40;9.80;99.90
31207;DHT22;17834;52.992;8.856;2023-05-29T04:22:05;9.80;99.90
31207;DHT22;17834;52.992;8.856;2023-05-29T04:24:32;9.80;99.90
31207;DHT22;17834;52.992;8.856;2023-05-29T04:26:58;9.90;99.90
31207;DHT22;17834;52.992;8.856;2023-05-29T04:29:26;10.00;99.90
31207;DHT22;17834;52.992;8.856;2023-05-29T04:31:51;10.00;99.90
31207;DHT22;17834;52.992;8.856;2023-05-29T04:34:17;10.10;99.90
31207;DHT22;17834;52.992;8.856;2023-05-29T04:36:42;10.20;99.90
31207;DHT22;17834;52.992;8.856;2023-05-29T04:39:09;10.30;99.90
31207;DHT22;17834;52.992;8.856;2023-05-29T04:41:34;10.30;99.90
31207;DHT22;17834;52.992;8.856;2023-05-29T04:44:00;10.30;99.90
31207;DHT22;17834;52.992;8.856;2023-05-29T04:46:26;10.30;99.90
31207;DHT22;17834;52.992;8.856;2023-05-29T04:48:52;10.30;99.90
31207;DHT22;17834;52.992;8.856;2023-05-29T04:51:21;10.40;99.90
31207;DHT22;17834;52.992;8.856;2023-05-29T04:53:47;10.50;99.90
31207;DHT22;17834;52.992;8.856;2023-05-29T04:56:14;10.50;99.90
31207;DHT22;17834;52.992;8.856;2023-05-29T04:58:41;10.60;99.90
31207;DHT22;17834;52.992;8.856;2023-05-29T05:01:07;10.70;99.90
31207;DHT22;17834;52.992;8.856;2023-05-29T05:03:34;10.90;99.90
31207;DHT22;17834;52.992;8.856;2023-05-29T05:06:00;11.20;99.90
31207;DHT22;17834;52.992;8.856;2023-05-29T05:08:28;11.30;99.90
31207;DHT22;17834;52.992;8.856;2023-05-29T05:10:54;11.50;99.90
31207;DHT22;17834;52.992;8.856;2023-05-29T05:13:20;11.60;99.90
31207;DHT22;17834;52.992;8.856;2023-05-29T05:15:45;11.90;99.90
31207;DHT22;17834;52.992;8.856;2023-05-29T05:18:11;12.20;99.90
31207;DHT22;17834;52.992;8.856;2023-05-29T05:20:37;12.40;99.90
31207;DHT22;17834;52.992;8.856;2023-05-29T05:23:02;12.50;99.90
31207;DHT22;17834;52.992;8.856;2023-05-29T05:25:28;12.40;99.90
31207;DHT22;17834;52.992;8.856;2023-05-29T05:27:53;12.30;99.90
31207;DHT22;17834;52.992;8.856;2023-05-29T05:30:19;12.30;99.90
31207;DHT22;17834;52.992;8.856;2023-05-29T05:32:44;12.50;99.90
31207;DHT22;17834;52.992;8.856;2023-05-29T05:35:10;12.70;99.90
31207;DHT22;17834;52.992;8.856;2023-05-29T05:37:37;12.90;99.90
31207;DHT22;17834;52.992;8.856;2023-05-29T05:40:03;13.10;99.90
31207;DHT22;17834;52.992;8.856;2023-05-29T05:42:31;13.40;99.90
31207;DHT22;17834;52.992;8.856;2023-05-29T05:44:57;13.40;99.90
31207;DHT22;17834;52.992;8.856;2023-05-29T05:47:22;13.30;99.90
31207;DHT22;17834;52.992;8.856;2023-05-29T05:49:48;13.90;99.90
31207;DHT22;17834;52.992;8.856;2023-05-29T05:52:15;15.20;99.90
31207;DHT22;17834;52.992;8.856;2023-05-29T05:54:41;17.00;99.90
31207;DHT22;17834;52.992;8.856;2023-05-29T05:57:07;18.60;96.80
31207;DHT22;17834;52.992;8.856;2023-05-29T05:59:33;20.10;91.90
31207;DHT22;17834;52.992;8.856;2023-05-29T06:01:58;20.70;86.50
31207;DHT22;17834;52.992;8.856;2023-05-29T06:04:24;21.30;79.50
31207;DHT22;17834;52.992;8.856;2023-05-29T06:06:49;21.70;74.20
31207;DHT22;17834;52.992;8.856;2023-05-29T06:09:15;22.20;71.80
31207;DHT22;17834;52.992;8.856;2023-05-29T06:11:40;22.40;67.90
31207;DHT22;17834;52.992;8.856;2023-05-29T06:14:06;22.90;65.30
31207;DHT22;17834;52.992;8.856;2023-05-29T06:16:31;22.50;63.20
31207;DHT22;17834;52.992;8.856;2023-05-29T06:18:57;22.50;61.90
31207;DHT22;17834;52.992;8.856;2023-05-29T06:21:22;21.50;63.00
31207;DHT22;17834;52.992;8.856;2023-05-29T06:23:48;21.30;64.30
31207;DHT22;17834;52.992;8.856;2023-05-29T06:26:14;21.70;62.90
31207;DHT22;17834;52.992;8.856;2023-05-29T06:28:41;21.90;62.80
31207;DHT22;17834;52.992;8.856;2023-05-29T06:31:06;22.10;61.30
31207;DHT22;17834;52.992;8.856;2023-05-29T06:33:32;22.20;61.50
31207;DHT22;17834;52.992;8.856;2023-05-29T06:35:57;22.70;60.60
31207;DHT22;17834;52.992;8.856;2023-05-29T06:38:23;23.40;59.00
31207;DHT22;17834;52.992;8.856;2023-05-29T06:40:48;24.20;57.50
31207;DHT22;17834;52.992;8.856;2023-05-29T06:43:14;23.90;55.60
31207;DHT22;17834;52.992;8.856;2023-05-29T06:45:39;23.10;57.10
31207;DHT22;17834;52.992;8.856;2023-05-29T06:48:06;21.90;58.30
31207;DHT22;17834;52.992;8.856;2023-05-29T06:50:31;22.30;59.60
31207;DHT22;17834;52.992;8.856;2023-05-29T06:52:59;22.70;58.60
31207;DHT22;17834;52.992;8.856;2023-05-29T06:55:24;22.60;58.40
31207;DHT22;17834;52.992;8.856;2023-05-29T06:57:50;22.60;57.20
31207;DHT22;17834;52.992;8.856;2023-05-29T07:00:16;22.60;58.10
31207;DHT22;17834;52.992;8.856;2023-05-29T07:02:42;23.00;58.70
31207;DHT22;17834;52.992;8.856;2023-05-29T07:05:08;22.60;56.50
31207;DHT22;17834;52.992;8.856;2023-05-29T07:07:33;21.40;58.40
31207;DHT22;17834;52.992;8.856;2023-05-29T07:09:59;21.10;59.80
31207;DHT22;17834;52.992;8.856;2023-05-29T07:12:24;21.00;60.50
31207;DHT22;17834;52.992;8.856;2023-05-29T07:14:50;21.50;59.60
31207;DHT22;17834;52.992;8.856;2023-05-29T07:17:15;21.90;59.90
31207;DHT22;17834;52.992;8.856;2023-05-29T07:19:41;22.10;58.30
31207;DHT22;17834;52.992;8.856;2023-05-29T07:22:06;21.40;58.60
31207;DHT22;17834;52.992;8.856;2023-05-29T07:24:32;21.10;60.00
31207;DHT22;17834;52.992;8.856;2023-05-29T07:26:58;21.40;60.10
31207;DHT22;17834;52.992;8.856;2023-05-29T07:29:24;21.40;60.30
31207;DHT22;17834;52.992;8.856;2023-05-29T07:31:50;21.70;59.60
31207;DHT22;17834;52.992;8.856;2023-05-29T07:34:16;21.80;59.50
31207;DHT22;17834;52.992;8.856;2023-05-29T07:37:04;22.00;58.70
31207;DHT22;17834;52.992;8.856;2023-05-29T07:39:34;22.00;58.20
31207;DHT22;17834;52.992;8.856;2023-05-29T07:42:01;22.40;57.70
31207;DHT22;17834;52.992;8.856;2023-05-29T07:44:27;22.60;57.70
31207;DHT22;17834;52.992;8.856;2023-05-29T07:46:52;22.90;58.10
31207;DHT22;17834;52.992;8.856;2023-05-29T07:49:20;22.30;57.90
31207;DHT22;17834;52.992;8.856;2023-05-29T07:51:45;21.30;59.60
31207;DHT22;17834;52.992;8.856;2023-05-29T07:54:11;20.50;62.70
31207;DHT22;17834;52.992;8.856;2023-05-29T07:56:37;19.60;64.10
31207;DHT22;17834;52.992;8.856;2023-05-29T07:59:04;18.80;65.80
31207;DHT22;17834;52.992;8.856;2023-05-29T08:01:29;18.20;67.90
31207;DHT22;17834;52.992;8.856;2023-05-29T08:03:55;17.60;69.00
31207;DHT22;17834;52.992;8.856;2023-05-29T08:06:21;17.50;71.20
31207;DHT22;17834;52.992;8.856;2023-05-29T08:08:46;17.20;71.50
31207;DHT22;17834;52.992;8.856;2023-05-29T08:11:12;17.00;71.80
31207;DHT22;17834;52.992;8.856;2023-05-29T08:13:38;16.80;70.70
31207;DHT22;17834;52.992;8.856;2023-05-29T08:16:03;16.70;71.20
31207;DHT22;17834;52.992;8.856;2023-05-29T08:18:31;16.70;73.00
31207;DHT22;17834;52.992;8.856;2023-05-29T08:20:57;16.50;74.00
31207;DHT22;17834;52.992;8.856;2023-05-29T08:23:23;16.60;74.60
31207;DHT22;17834;52.992;8.856;2023-05-29T08:25:49;16.50;73.40
31207;DHT22;17834;52.992;8.856;2023-05-29T08:28:15;16.50;73.10
31207;DHT22;17834;52.992;8.856;2023-05-29T08:30:41;16.40;73.80
31207;DHT22;17834;52.992;8.856;2023-05-29T08:33:06;16.30;74.30
31207;DHT22;17834;52.992;8.856;2023-05-29T08:35:32;16.40;74.70
31207;DHT22;17834;52.992;8.856;2023-05-29T08:37:58;16.30;75.90
31207;DHT22;17834;52.992;8.856;2023-05-29T08:40:24;16.30;74.30
31207;DHT22;17834;52.992;8.856;2023-05-29T08:42:58;16.20;75.30
31207;DHT22;17834;52.992;8.856;2023-05-29T08:45:25;16.40;77.30
31207;DHT22;17834;52.992;8.856;2023-05-29T08:47:52;16.40;75.40
31207;DHT22;17834;52.992;8.856;2023-05-29T08:50:20;16.30;75.30
31207;DHT22;17834;52.992;8.856;2023-05-29T08:52:46;16.40;75.30
31207;DHT22;17834;52.992;8.856;2023-05-29T08:55:12;16.50;75.50
31207;DHT22;17834;52.992;8.856;2023-05-29T08:57:38;16.60;76.80
31207;DHT22;17834;52.992;8.856;2023-05-29T09:00:05;16.70;75.60
31207;DHT22;17834;52.992;8.856;2023-05-29T09:02:35;16.60;75.60
31207;DHT22;17834;52.992;8.856;2023-05-29T09:05:02;16.40;75.10
31207;DHT22;17834;52.992;8.856;2023-05-29T09:07:27;16.40;76.40
31207;DHT22;17834;52.992;8.856;2023-05-29T09:09:53;16.30;74.50
31207;DHT22;17834;52.992;8.856;2023-05-29T09:12:18;16.10;74.70
31207;DHT22;17834;52.992;8.856;2023-05-29T09:14:44;16.30;77.00
31207;DHT22;17834;52.992;8.856;2023-05-29T09:17:12;16.50;77.40
31207;DHT22;17834;52.992;8.856;2023-05-29T09:19:38;16.40;77.70
31207;DHT22;17834;52.992;8.856;2023-05-29T09:22:15;16.40;76.60
31207;DHT22;17834;52.992;8.856;2023-05-29T09:24:41;16.40;76.60
31207;DHT22;17834;52.992;8.856;2023-05-29T09:27:09;16.30;75.10
31207;DHT22;17834;52.992;8.856;2023-05-29T09:29:41;16.20;73.00
31207;DHT22;17834;52.992;8.856;2023-05-29T09:32:15;16.30;75.90
31207;DHT22;17834;52.992;8.856;2023-05-29T09:34:42;16.40;74.40
31207;DHT22;17834;52.992;8.856;2023-05-29T09:37:08;16.40;75.20
31207;DHT22;17834;52.992;8.856;2023-05-29T09:39:44;16.50;74.20
31207;DHT22;17834;52.992;8.856;2023-05-29T09:42:10;16.40;76.20
31207;DHT22;17834;52.992;8.856;2023-05-29T09:44:35;16.30;76.90
31207;DHT22;17834;52.992;8.856;2023-05-29T09:47:01;16.30;77.90
31207;DHT22;17834;52.992;8.856;2023-05-29T09:49:27;16.30;77.00
31207;DHT22;17834;52.992;8.856;2023-05-29T09:51:56;16.30;76.50
31207;DHT22;17834;52.992;8.856;2023-05-29T09:54:27;16.40;76.00
31207;DHT22;17834;52.992;8.856;2023-05-29T09:56:54;16.40;76.20
31207;DHT22;17834;52.992;8.856;2023-05-29T09:59:23;16.40;75.00
31207;DHT22;17834;52.992;8.856;2023-05-29T10:02:00;16.50;76.20
31207;DHT22;17834;52.992;8.856;2023-05-29T10:04:26;16.60;75.70
31207;DHT22;17834;52.992;8.856;2023-05-29T10:06:53;16.70;76.50
31207;DHT22;17834;52.992;8.856;2023-05-29T10:09:24;16.70;77.10
31207;DHT22;17834;52.992;8.856;2023-05-29T10:11:53;17.00;77.90
31207;DHT22;17834;52.992;8.856;2023-05-29T10:14:25;17.00;75.00
31207;DHT22;17834;52.992;8.856;2023-05-29T10:16:53;16.90;73.50
31207;DHT22;17834;52.992;8.856;2023-05-29T10:19:25;17.00;75.10
31207;DHT22;17834;52.992;8.856;2023-05-29T10:21:53;17.00;75.30
31207;DHT22;17834;52.992;8.856;2023-05-29T10:24:19;17.00;74.50
31207;DHT22;17834;52.992;8.856;2023-05-29T10:26:48;17.00;73.50
31207;DHT22;17834;52.992;8.856;2023-05-29T10:29:44;17.20;74.20
31207;DHT22;17834;52.992;8.856;2023-05-29T10:32:21;17.00;75.20
31207;DHT22;17834;52.992;8.856;2023-05-29T10:40:07;17.30;74.90
31207;DHT22;17834;52.992;8.856;2023-05-29T10:42:48;17.30;74.80
31207;DHT22;17834;52.992;8.856;2023-05-29T10:47:56;17.30;73.70
31207;DHT22;17834;52.992;8.856;2023-05-29T10:50:43;17.10;75.20
31207;DHT22;17834;52.992;8.856;2023-05-29T10:53:13;17.20;75.50
31207;DHT22;17834;52.992;8.856;2023-05-29T10:55:40;17.20;74.50
31207;DHT22;17834;52.992;8.856;2023-05-29T10:58:06;17.10;74.40
31207;DHT22;17834;52.992;8.856;2023-05-29T11:00:33;17.00;74.70
31207;DHT22;17834;52.992;8.856;2023-05-29T11:03:04;17.10;75.50
31207;DHT22;17834;52.992;8.856;2023-05-29T11:05:32;17.10;75.40
31207;DHT22;17834;52.992;8.856;2023-05-29T11:07:59;17.10;76.30
31207;DHT22;17834;52.992;8.856;2023-05-29T11:10:44;17.10;74.40
31207;DHT22;17834;52.992;8.856;2023-05-29T11:13:10;17.30;75.00
31207;DHT22;17834;52.992;8.856;2023-05-29T11:15:37;17.40;76.20
31207;DHT22;17834;52.992;8.856;2023-05-29T11:18:06;17.50;76.50
31207;DHT22;17834;52.992;8.856;2023-05-29T11:20:36;17.50;78.00
31207;DHT22;17834;52.992;8.856;2023-05-29T11:23:05;17.60;78.90
31207;DHT22;17834;52.992;8.856;2023-05-29T11:25:37;17.60;78.10
31207;DHT22;17834;52.992;8.856;2023-05-29T11:28:04;17.60;78.40
31207;DHT22;17834;52.992;8.856;2023-05-29T11:30:41;17.70;76.40
31207;DHT22;17834;52.992;8.856;2023-05-29T11:33:09;17.80;75.70
31207;DHT22;17834;52.992;8.856;2023-05-29T11:35:41;17.80;76.40
31207;DHT22;17834;52.992;8.856;2023-05-29T11:38:06;17.70;77.00
31207;DHT22;17834;52.992;8.856;2023-05-29T11:40:36;17.70;78.20
31207;DHT22;17834;52.992;8.856;2023-05-29T11:43:03;17.70;77.50
31207;DHT22;17834;52.992;8.856;2023-05-29T11:45:32;17.60;78.40
31207;DHT22;17834;52.992;8.856;2023-05-29T11:48:00;17.60;77.20
31207;DHT22;17834;52.992;8.856;2023-05-29T11:50:30;17.60;77.20
31207;DHT22;17834;52.992;8.856;2023-05-29T11:53:00;17.50;77.30
31207;DHT22;17834;52.992;8.856;2023-05-29T11:55:26;17.50;79.10
31207;DHT22;17834;52.992;8.856;2023-05-29T11:58:00;17.60;79.60
31207;DHT22;17834;52.992;8.856;2023-05-29T12:00:30;17.60;81.10
31207;DHT22;17834;52.992;8.856;2023-05-29T12:02:57;17.70;80.80
31207;DHT22;17834;52.992;8.856;2023-05-29T12:05:23;17.70;78.00
31207;DHT22;17834;52.992;8.856;2023-05-29T12:07:52;17.60;78.50
31207;DHT22;17834;52.992;8.856;2023-05-29T12:10:19;17.60;79.50
31207;DHT22;17834;52.992;8.856;2023-05-29T12:12:51;17.50;79.80
31207;DHT22;17834;52.992;8.856;2023-05-29T12:15:17;17.60;78.60
31207;DHT22;17834;52.992;8.856;2023-05-29T12:17:44;17.50;79.40
31207;DHT22;17834;52.992;8.856;2023-05-29T12:20:11;17.40;79.10
31207;DHT22;17834;52.992;8.856;2023-05-29T12:22:37;17.40;78.60
31207;DHT22;17834;52.992;8.856;2023-05-29T12:25:12;17.50;79.70
31207;DHT22;17834;52.992;8.856;2023-05-29T12:27:39;17.40;78.70
31207;DHT22;17834;52.992;8.856;2023-05-29T12:32:44;17.50;79.60
31207;DHT22;17834;52.992;8.856;2023-05-29T12:35:15;17.50;79.60
31207;DHT22;17834;52.992;8.856;2023-05-29T12:37:44;17.50;79.90
31207;DHT22;17834;52.992;8.856;2023-05-29T12:40:22;17.50;82.10
31207;DHT22;17834;52.992;8.856;2023-05-29T12:42:52;17.60;83.00
31207;DHT22;17834;52.992;8.856;2023-05-29T12:45:18;17.60;82.30
31207;DHT22;17834;52.992;8.856;2023-05-29T12:50:25;17.60;79.60
31207;DHT22;17834;52.992;8.856;2023-05-29T12:53:03;17.60;78.40
31207;DHT22;17834;52.992;8.856;2023-05-29T12:55:31;17.50;79.40
31207;DHT22;17834;52.992;8.856;2023-05-29T12:58:07;17.50;80.40
31207;DHT22;17834;52.992;8.856;2023-05-29T13:00:34;17.50;80.70
31207;DHT22;17834;52.992;8.856;2023-05-29T13:03:00;17.50;80.40
31207;DHT22;17834;52.992;8.856;2023-05-29T13:05:26;17.40;78.80
31207;DHT22;17834;52.992;8.856;2023-05-29T13:07:52;17.40;79.40
31207;DHT22;17834;52.992;8.856;2023-05-29T13:10:18;17.50;80.60
31207;DHT22;17834;52.992;8.856;2023-05-29T13:12:45;17.40;78.20
31207;DHT22;17834;52.992;8.856;2023-05-29T13:15:12;17.40;79.80
31207;DHT22;17834;52.992;8.856;2023-05-29T13:17:39;17.40;78.30
31207;DHT22;17834;52.992;8.856;2023-05-29T13:20:07;17.30;79.60
31207;DHT22;17834;52.992;8.856;2023-05-29T13:22:33;17.30;81.20
31207;DHT22;17834;52.992;8.856;2023-05-29T13:24:59;17.30;81.30
31207;DHT22;17834;52.992;8.856;2023-05-29T13:27:25;17.40;83.30
31207;DHT22;17834;52.992;8.856;2023-05-29T13:29:52;17.40;81.50
31207;DHT22;17834;52.992;8.856;2023-05-29T13:32:17;17.50;81.60
31207;DHT22;17834;52.992;8.856;2023-05-29T13:34:43;17.50;79.70
31207;DHT22;17834;52.992;8.856;2023-05-29T13:37:08;17.40;79.30
31207;DHT22;17834;52.992;8.856;2023-05-29T13:39:34;17.40;80.40
31207;DHT22;17834;52.992;8.856;2023-05-29T13:41:59;17.40;79.50
31207;DHT22;17834;52.992;8.856;2023-05-29T13:44:25;17.40;81.10
31207;DHT22;17834;52.992;8.856;2023-05-29T13:46:51;17.40;80.90
31207;DHT22;17834;52.992;8.856;2023-05-29T13:49:16;17.40;80.80
31207;DHT22;17834;52.992;8.856;2023-05-29T13:51:42;17.40;79.80
31207;DHT22;17834;52.992;8.856;2023-05-29T13:54:07;17.50;78.80
31207;DHT22;17834;52.992;8.856;2023-05-29T13:56:33;17.50;78.00
31207;DHT22;17834;52.992;8.856;2023-05-29T13:58:58;17.40;78.60
31207;DHT22;17834;52.992;8.856;2023-05-29T14:01:30;17.40;78.80
31207;DHT22;17834;52.992;8.856;2023-05-29T14:03:56;17.40;78.50
31207;DHT22;17834;52.992;8.856;2023-05-29T14:06:21;17.40;79.10
31207;DHT22;17834;52.992;8.856;2023-05-29T14:08:47;17.50;79.70
31207;DHT22;17834;52.992;8.856;2023-05-29T14:11:12;17.40;79.50
31207;DHT22;17834;52.992;8.856;2023-05-29T14:13:38;17.40;78.60
31207;DHT22;17834;52.992;8.856;2023-05-29T14:16:03;17.50;78.20
31207;DHT22;17834;52.992;8.856;2023-05-29T14:18:29;17.50;76.50
31207;DHT22;17834;52.992;8.856;2023-05-29T14:20:54;17.60;76.90
31207;DHT22;17834;52.992;8.856;2023-05-29T14:23:20;17.60;77.10
31207;DHT22;17834;52.992;8.856;2023-05-29T14:25:45;17.60;76.70
31207;DHT22;17834;52.992;8.856;2023-05-29T14:28:11;17.60;78.60
31207;DHT22;17834;52.992;8.856;2023-05-29T14:30:37;17.70;78.20
31207;DHT22;17834;52.992;8.856;2023-05-29T14:33:03;17.60;78.70
31207;DHT22;17834;52.992;8.856;2023-05-29T14:35:31;17.70;80.20
31207;DHT22;17834;52.992;8.856;2023-05-29T14:37:57;17.70;79.70
31207;DHT22;17834;52.992;8.856;2023-05-29T14:40:23;17.70;79.00
31207;DHT22;17834;52.992;8.856;2023-05-29T14:42:48;17.80;78.70
31207;DHT22;17834;52.992;8.856;2023-05-29T14:45:13;17.70;76.50
31207;DHT22;17834;52.992;8.856;2023-05-29T14:47:40;17.70;77.10
31207;DHT22;17834;52.992;8.856;2023-05-29T14:50:06;17.70;77.20
31207;DHT22;17834;52.992;8.856;2023-05-29T14:52:32;17.70;76.10
31207;DHT22;17834;52.992;8.856;2023-05-29T14:54:57;17.60;76.10
31207;DHT22;17834;52.992;8.856;2023-05-29T14:57:23;17.60;76.60
31207;DHT22;17834;52.992;8.856;2023-05-29T14:59:48;17.60;76.40
31207;DHT22;17834;52.992;8.856;2023-05-29T15:02:15;17.60;77.70
31207;DHT22;17834;52.992;8.856;2023-05-29T15:04:41;17.60;75.90
31207;DHT22;17834;52.992;8.856;2023-05-29T15:07:06;17.60;74.70
31207;DHT22;17834;52.992;8.856;2023-05-29T15:09:33;17.50;76.60
31207;DHT22;17834;52.992;8.856;2023-05-29T15:11:58;17.40;77.70
31207;DHT22;17834;52.992;8.856;2023-05-29T15:14:24;17.50;78.50
31207;DHT22;17834;52.992;8.856;2023-05-29T15:16:50;17.50;78.70
31207;DHT22;17834;52.992;8.856;2023-05-29T15:19:15;17.50;77.30
31207;DHT22;17834;52.992;8.856;2023-05-29T15:21:41;17.50;78.10
31207;DHT22;17834;52.992;8.856;2023-05-29T15:24:06;17.50;77.70
31207;DHT22;17834;52.992;8.856;2023-05-29T15:26:33;17.40;78.50
31207;DHT22;17834;52.992;8.856;2023-05-29T15:29:00;17.50;78.00
31207;DHT22;17834;52.992;8.856;2023-05-29T15:31:25;17.50;78.90
31207;DHT22;17834;52.992;8.856;2023-05-29T15:33:51;17.50;78.00
31207;DHT22;17834;52.992;8.856;2023-05-29T15:36:16;17.40;77.40
31207;DHT22;17834;52.992;8.856;2023-05-29T15:38:44;17.30;78.10
31207;DHT22;17834;52.992;8.856;2023-05-29T15:41:09;17.30;78.60
31207;DHT22;17834;52.992;8.856;2023-05-29T15:43:35;17.30;78.60
31207;DHT22;17834;52.992;8.856;2023-05-29T15:46:00;17.30;79.20
31207;DHT22;17834;52.992;8.856;2023-05-29T15:48:26;17.30;79.40
31207;DHT22;17834;52.992;8.856;2023-05-29T15:50:51;17.40;79.50
31207;DHT22;17834;52.992;8.856;2023-05-29T15:53:17;17.30;78.10